Ana Sayfa
METAR-TAF:

METAR-TAF

Havaalanları :

Funafuti, Tuvalu

Enlem: 08-31S, Boylam: 179-13E, yükseklik: 1 m

Güncel hava durumu gözlemi

Rapor saat 17:00 UTC de 1 saat ve 9 dakika önce yapıldı.
Rüzgar değişken yönden 2 kt
Sıcaklık 28°C
Nem 89%
Basınç 1011 hPa
Görüş mesafesi 10 km veya daha fazla
2000 ft yükseklikte az bulutlu
30000 ft yükseklikte parçalı bulutlu

METAR: NGFU 161700Z VRB02KT 9999 FEW020 SCT300 28/26 Q1011

Saat: 06:09 (18:09 UTC)

Tahmin

Rapor saat 17:06 UTC de 1 saat ve 3 dakika önce yapıldı.
Ayın 16'si saat 18 UTC'den ayın 17'si saat 18 UTC'ye kadar geçerli Tahmin
Rüzgar doğudan 5 kt
Görüş mesafesi 10 km veya daha fazla
1800 ft yükseklikte parçalı bulutlu
Olasılık 40% :
Geçici
ayın 17'si saat 06 UTC'den ayın 17'si saat 18 UTC'ye kadar
Görüş mesafesi: 5000 m
1600 ft yükseklikte az bulutlu, Kümülonimbus.
gök gürültülü fırtına, yağmur,

TAF: NGFU 161706Z 1618/1718 09005KT 9999 SCT018 PROB40 TEMPO 1706/1718 5000 TSRA FEW016CB

4.000'den fazla havaalanı için hava durumu gözlemleri ve tahminleri (METAR ve TAF raporları).

Kullanılabilir istasyonlar harita üzerinde sarı ve kırmızı noktalarla gösterilir.

İstasyonun adını görmek için fareyi noktanın üzerinde gezdirin.

Sonrasında hava gözlem ve tahminlerini görmek için tıklayın.

Haritayı değiştirmek için: yaklaştırmak için siyah artı işaretli yeşil düğmeye ve uzaklaştırmak için de eksi işaretli düğmeye hızla tıklayın; bitişik haritalar için yeşil okları kullanın.


METAR-TAF: